createdAt,value
2022-12-01T00:01:27.336Z,17.67
2022-12-01T00:03:54.901Z,18.90
2022-12-01T00:06:22.744Z,18.45
2022-12-01T00:09:14.150Z,18.85
2022-12-01T00:11:48.615Z,18.65
2022-12-01T00:14:16.504Z,17.95
2022-12-01T00:16:44.757Z,17.98
2022-12-01T00:19:12.504Z,18.73
2022-12-01T00:21:40.204Z,18.90
2022-12-01T00:24:09.625Z,20.05
2022-12-01T00:29:05.807Z,17.17
2022-12-01T00:31:34.197Z,19.33
2022-12-01T00:34:03.803Z,19.70
2022-12-01T00:36:34.938Z,20.85
2022-12-01T00:39:02.594Z,19.40
2022-12-01T00:41:30.231Z,20.25
2022-12-01T00:43:57.887Z,20.25
2022-12-01T00:46:25.606Z,20.67
2022-12-01T00:48:53.237Z,18.20
2022-12-01T00:51:20.782Z,19.80
2022-12-01T00:53:48.347Z,21.83
2022-12-01T00:56:15.892Z,19.90
2022-12-01T00:58:43.391Z,20.52
2022-12-01T01:01:11.075Z,18.40
2022-12-01T01:03:38.789Z,18.50
2022-12-01T01:06:11.830Z,19.08
2022-12-01T01:08:39.916Z,20.05
2022-12-01T01:11:09.137Z,19.33
2022-12-01T01:13:37.273Z,18.83
2022-12-01T01:16:10.109Z,18.63
2022-12-01T01:18:37.757Z,19.33
2022-12-01T01:21:08.535Z,19.95
2022-12-01T01:23:38.450Z,19.80
2022-12-01T01:26:16.122Z,18.95
2022-12-01T01:28:46.447Z,18.83
2022-12-01T01:31:16.994Z,18.08
2022-12-01T01:33:45.226Z,18.60
2022-12-01T01:36:13.231Z,17.15
2022-12-01T01:38:41.477Z,18.20
2022-12-01T01:41:10.285Z,16.50
2022-12-01T01:43:53.052Z,15.82
2022-12-01T01:46:21.095Z,16.95
2022-12-01T01:48:53.586Z,18.20
2022-12-01T01:51:33.507Z,19.63
2022-12-01T01:54:20.956Z,19.70
2022-12-01T01:56:51.836Z,17.98
2022-12-01T01:59:29.500Z,18.38
2022-12-01T02:02:06.273Z,17.83
2022-12-01T02:04:41.631Z,17.00
2022-12-01T02:07:11.601Z,17.90
2022-12-01T02:09:39.187Z,16.15
2022-12-01T02:12:15.783Z,18.63
2022-12-01T02:14:55.253Z,19.40
2022-12-01T02:17:41.524Z,19.20
2022-12-01T02:20:21.349Z,20.33
2022-12-01T02:23:03.761Z,21.73
2022-12-01T02:25:56.302Z,21.10
2022-12-01T02:29:02.792Z,23.20
2022-12-01T02:31:48.620Z,22.60
2022-12-01T02:34:37.521Z,23.08
2022-12-01T02:37:10.632Z,24.30
2022-12-01T02:40:03.863Z,22.80
2022-12-01T02:42:53.616Z,22.00
2022-12-01T02:45:30.079Z,23.05
2022-12-01T02:48:02.066Z,20.95
2022-12-01T02:50:32.659Z,22.10
2022-12-01T02:53:03.201Z,23.50
2022-12-01T02:55:30.910Z,22.15
2022-12-01T02:57:58.511Z,22.50
2022-12-01T03:00:26.246Z,22.08
2022-12-01T03:02:56.827Z,23.73
2022-12-01T03:05:36.047Z,21.85
2022-12-01T03:08:26.910Z,24.30
2022-12-01T03:10:57.130Z,22.58
2022-12-01T03:13:43.783Z,25.05
2022-12-01T03:16:24.141Z,25.38
2022-12-01T03:18:54.635Z,26.52
2022-12-01T03:21:52.996Z,23.55
2022-12-01T03:24:23.867Z,24.23
2022-12-01T03:26:57.003Z,27.10
2022-12-01T03:29:47.998Z,24.05
2022-12-01T03:32:23.738Z,24.27
2022-12-01T03:35:22.785Z,26.02
2022-12-01T03:38:02.799Z,22.80
2022-12-01T03:43:02.381Z,24.17
2022-12-01T03:46:07.556Z,19.70
2022-12-01T03:48:35.354Z,20.73
2022-12-01T03:51:21.865Z,19.98
2022-12-01T03:54:16.758Z,20.60
2022-12-01T03:56:55.164Z,21.23
2022-12-01T03:59:25.642Z,19.05
2022-12-01T04:01:53.327Z,20.60
2022-12-01T04:04:20.914Z,23.38
2022-12-01T04:06:50.926Z,22.50
2022-12-01T04:09:18.559Z,22.20
2022-12-01T04:12:04.421Z,22.33
2022-12-01T04:14:32.032Z,24.15
2022-12-01T04:16:59.493Z,22.05
2022-12-01T04:19:27.058Z,24.17
2022-12-01T04:21:54.504Z,24.88
2022-12-01T04:24:22.036Z,24.17
2022-12-01T04:26:49.544Z,24.23
2022-12-01T04:29:17.052Z,23.77
2022-12-01T04:31:44.754Z,22.77
2022-12-01T04:34:12.347Z,24.48
2022-12-01T04:36:39.833Z,23.45
2022-12-01T04:39:07.377Z,22.30
2022-12-01T04:41:34.843Z,21.80
2022-12-01T04:44:02.427Z,22.52
2022-12-01T04:46:30.039Z,22.00
2022-12-01T04:48:57.662Z,24.10
2022-12-01T04:51:25.174Z,25.30
2022-12-01T04:53:52.710Z,24.67
2022-12-01T04:56:20.396Z,22.48
2022-12-01T04:58:48.024Z,23.55
2022-12-01T05:01:18.354Z,24.98
2022-12-01T05:03:49.588Z,21.15
2022-12-01T05:06:23.137Z,23.85
2022-12-01T05:08:51.473Z,19.00
2022-12-01T05:11:19.214Z,24.50
2022-12-01T05:13:48.304Z,21.08
2022-12-01T05:16:28.261Z,17.67
2022-12-01T05:19:18.387Z,18.58
2022-12-01T05:21:47.497Z,19.42
2022-12-01T05:24:15.549Z,19.13
2022-12-01T05:26:44.411Z,20.15
2022-12-01T05:29:12.806Z,22.40
2022-12-01T05:31:40.425Z,24.25
2022-12-01T05:34:09.140Z,24.85
2022-12-01T05:36:36.883Z,21.75
2022-12-01T05:39:05.418Z,21.88
2022-12-01T05:41:33.002Z,20.45
2022-12-01T05:44:00.535Z,22.60
2022-12-01T05:46:28.156Z,21.05
2022-12-01T05:48:55.649Z,21.67
2022-12-01T05:51:23.201Z,20.60
2022-12-01T05:53:50.692Z,22.65
2022-12-01T05:56:18.181Z,24.27
2022-12-01T05:58:45.778Z,19.85
2022-12-01T06:01:13.271Z,21.55
2022-12-01T06:03:40.980Z,22.10
2022-12-01T06:06:08.634Z,22.27
2022-12-01T06:08:36.216Z,21.92
2022-12-01T06:11:03.844Z,21.35
2022-12-01T06:13:31.642Z,21.33
2022-12-01T06:16:00.914Z,22.08
2022-12-01T06:18:31.272Z,23.52
2022-12-01T06:20:58.890Z,21.95
2022-12-01T06:23:30.298Z,22.85
2022-12-01T06:25:58.767Z,21.83
2022-12-01T06:28:26.302Z,21.27
2022-12-01T06:30:57.944Z,21.98
2022-12-01T06:33:28.817Z,20.38
2022-12-01T06:36:00.289Z,19.65
2022-12-01T06:38:31.674Z,18.42
2022-12-01T06:40:59.669Z,19.23
2022-12-01T06:43:27.438Z,18.35
2022-12-01T06:46:00.930Z,18.80
2022-12-01T06:48:30.208Z,18.40
2022-12-01T06:50:58.882Z,18.48
2022-12-01T06:53:28.429Z,19.35
2022-12-01T06:56:04.819Z,18.05
2022-12-01T06:58:32.980Z,21.38
2022-12-01T07:01:07.301Z,19.95
2022-12-01T07:03:35.329Z,20.77
2022-12-01T07:06:03.224Z,20.00
2022-12-01T07:08:32.518Z,20.35
2022-12-01T07:11:02.004Z,20.83
2022-12-01T07:13:33.476Z,19.35
2022-12-01T07:16:05.911Z,20.15
2022-12-01T07:18:34.404Z,20.27
2022-12-01T07:21:04.266Z,18.50
2022-12-01T07:26:04.900Z,16.63
2022-12-01T07:28:32.987Z,16.38
2022-12-01T07:31:20.832Z,16.92
2022-12-01T07:33:48.482Z,16.65
2022-12-01T07:36:16.145Z,16.70
2022-12-01T07:38:43.882Z,17.17
2022-12-01T07:41:16.593Z,17.08
2022-12-01T07:43:44.340Z,14.98
2022-12-01T07:46:23.150Z,17.27
2022-12-01T07:48:52.855Z,15.90
2022-12-01T07:51:21.338Z,17.65
2022-12-01T07:53:50.750Z,16.25
2022-12-01T07:56:19.711Z,18.73
2022-12-01T07:58:47.767Z,17.97
2022-12-01T08:01:20.823Z,19.75
2022-12-01T08:03:49.998Z,17.77
2022-12-01T08:06:19.032Z,17.07
2022-12-01T08:08:47.644Z,16.60
2022-12-01T08:11:20.723Z,16.90
2022-12-01T08:13:49.487Z,16.35
2022-12-01T08:16:19.952Z,15.90
2022-12-01T08:18:47.951Z,15.80
2022-12-01T08:21:18.721Z,16.42
2022-12-01T08:23:47.511Z,17.35
2022-12-01T08:26:17.858Z,16.80
2022-12-01T08:28:46.437Z,17.27
2022-12-01T08:31:27.514Z,17.25
2022-12-01T08:33:56.196Z,17.75
2022-12-01T08:36:24.903Z,17.58
2022-12-01T08:38:55.124Z,16.83
2022-12-01T08:41:24.357Z,14.90
2022-12-01T08:44:00.047Z,15.27
2022-12-01T08:46:32.480Z,15.15
2022-12-01T08:49:00.809Z,16.33
2022-12-01T08:51:29.130Z,15.68
2022-12-01T08:53:58.237Z,15.52
2022-12-01T08:56:29.964Z,16.63
2022-12-01T08:58:58.141Z,17.52
2022-12-01T09:01:26.379Z,17.45
2022-12-01T09:04:10.820Z,16.80
2022-12-01T09:06:41.328Z,18.13
2022-12-01T09:09:16.323Z,16.17
2022-12-01T09:11:45.401Z,18.38
2022-12-01T09:14:14.135Z,18.42
2022-12-01T09:16:43.331Z,16.02
2022-12-01T09:19:13.250Z,16.80
2022-12-01T09:21:43.392Z,16.90
2022-12-01T09:26:39.485Z,15.40
2022-12-01T09:29:09.370Z,17.30
2022-12-01T09:34:11.294Z,15.30
2022-12-01T09:36:39.777Z,16.88
2022-12-01T09:39:11.651Z,16.33
2022-12-01T09:41:47.957Z,17.25
2022-12-01T09:44:45.523Z,17.48
2022-12-01T09:47:30.012Z,19.40
2022-12-01T09:50:06.693Z,17.83
2022-12-01T09:52:40.970Z,19.33
2022-12-01T09:55:17.000Z,18.38
2022-12-01T09:57:48.077Z,17.73
2022-12-01T10:00:19.364Z,19.05
2022-12-01T10:02:59.382Z,17.02
2022-12-01T10:05:33.536Z,19.10
2022-12-01T10:08:05.758Z,19.13
2022-12-01T10:10:51.842Z,19.60
2022-12-01T10:13:25.711Z,20.45
2022-12-01T10:16:02.491Z,18.58
2022-12-01T10:19:10.292Z,18.10
2022-12-01T10:22:15.081Z,19.13
2022-12-01T10:25:06.015Z,18.75
2022-12-01T10:27:54.860Z,18.90
2022-12-01T10:30:24.007Z,18.75
2022-12-01T10:32:53.000Z,22.17
2022-12-01T10:35:30.027Z,20.57
2022-12-01T10:38:01.630Z,20.00
2022-12-01T10:40:29.772Z,19.98
2022-12-01T10:42:57.319Z,19.10
2022-12-01T10:45:36.594Z,19.17
2022-12-01T10:48:11.236Z,20.67
2022-12-01T10:50:39.259Z,21.55
2022-12-01T10:53:07.027Z,20.65
2022-12-01T10:55:44.888Z,20.33
2022-12-01T10:58:17.263Z,20.65
2022-12-01T11:01:00.697Z,20.50
2022-12-01T11:03:32.230Z,20.77
2022-12-01T11:06:04.510Z,21.58
2022-12-01T11:08:41.654Z,18.33
2022-12-01T11:11:32.515Z,19.70
2022-12-01T11:14:04.773Z,22.52
2022-12-01T11:16:44.440Z,19.88
2022-12-01T11:19:34.721Z,26.48
2022-12-01T11:22:33.106Z,21.52
2022-12-01T11:25:05.683Z,21.48
2022-12-01T11:27:37.564Z,20.27
2022-12-01T11:30:22.446Z,21.20
2022-12-01T11:33:04.470Z,18.48
2022-12-01T11:35:35.889Z,18.13
2022-12-01T11:38:28.911Z,19.88
2022-12-01T11:40:56.095Z,19.58
2022-12-01T11:43:33.888Z,20.83
2022-12-01T11:46:09.093Z,20.98
2022-12-01T11:48:36.990Z,20.88
2022-12-01T11:51:26.732Z,18.40
2022-12-01T11:54:23.832Z,17.50
2022-12-01T11:57:17.358Z,19.23
2022-12-01T11:59:40.500Z,19.23
2022-12-01T12:02:35.444Z,19.02
2022-12-01T12:05:17.508Z,21.38
2022-12-01T12:07:59.667Z,19.65
2022-12-01T12:10:38.899Z,19.95
2022-12-01T12:13:22.881Z,21.00
2022-12-01T12:16:15.434Z,21.80
2022-12-01T12:19:01.551Z,21.23
2022-12-01T12:21:35.075Z,20.20
2022-12-01T12:24:19.965Z,21.88
2022-12-01T12:27:24.534Z,22.58
2022-12-01T12:30:30.616Z,23.33
2022-12-01T12:33:22.843Z,20.15
2022-12-01T12:36:15.296Z,22.25
2022-12-01T12:38:58.260Z,23.73
2022-12-01T12:41:36.007Z,21.88
2022-12-01T12:44:39.709Z,21.20
2022-12-01T12:47:07.180Z,21.33
2022-12-01T12:49:56.905Z,24.00
2022-12-01T12:52:31.669Z,23.25
2022-12-01T12:55:04.245Z,22.98
2022-12-01T12:57:34.227Z,24.50
2022-12-01T13:03:09.546Z,23.00
2022-12-01T13:05:41.712Z,22.17
2022-12-01T13:08:16.381Z,23.38
2022-12-01T13:10:50.282Z,24.67
2022-12-01T13:13:42.662Z,22.90
2022-12-01T13:16:20.878Z,22.98
2022-12-01T13:18:56.193Z,23.52
2022-12-01T13:21:24.263Z,23.42
2022-12-01T13:23:52.909Z,23.35
2022-12-01T13:26:22.278Z,23.23
2022-12-01T13:28:58.949Z,25.45
2022-12-01T13:31:26.722Z,23.42
2022-12-01T13:34:05.000Z,22.35
2022-12-01T13:36:49.421Z,24.67
2022-12-01T13:39:41.777Z,22.27
2022-12-01T13:42:26.940Z,23.65
2022-12-01T13:45:00.733Z,24.55
2022-12-01T13:47:52.775Z,26.48
2022-12-01T13:51:00.373Z,24.55
2022-12-01T13:53:38.017Z,25.33
2022-12-01T13:56:17.537Z,25.50
2022-12-01T13:58:50.850Z,25.38
2022-12-01T14:01:21.819Z,23.83
2022-12-01T14:04:17.858Z,23.42
2022-12-01T14:06:51.277Z,23.35
2022-12-01T14:09:27.942Z,26.92
2022-12-01T14:12:02.191Z,26.27
2022-12-01T14:14:39.726Z,25.90
2022-12-01T14:17:25.221Z,25.77
2022-12-01T14:19:54.131Z,26.15
2022-12-01T14:22:33.712Z,25.90
2022-12-01T14:25:03.417Z,26.02
2022-12-01T14:27:39.541Z,25.15
2022-12-01T14:30:45.687Z,25.20
2022-12-01T14:33:44.987Z,23.98
2022-12-01T14:36:24.537Z,24.52
2022-12-01T14:38:58.410Z,23.23
2022-12-01T14:41:29.199Z,24.88
2022-12-01T14:44:04.719Z,23.95
2022-12-01T14:46:44.084Z,23.50
2022-12-01T14:49:18.374Z,23.90
2022-12-01T14:51:52.684Z,25.38
2022-12-01T14:54:31.885Z,25.42
2022-12-01T14:57:06.869Z,23.13
2022-12-01T14:59:35.734Z,25.48
2022-12-01T15:02:09.213Z,27.77
2022-12-01T15:05:16.574Z,25.75
2022-12-01T15:07:47.554Z,25.55
2022-12-01T15:10:25.717Z,25.30
2022-12-01T15:12:54.073Z,23.42
2022-12-01T15:15:24.516Z,24.55
2022-12-01T15:17:55.742Z,25.67
2022-12-01T15:20:37.200Z,25.65
2022-12-01T15:23:16.311Z,24.38
2022-12-01T15:25:47.223Z,27.20
2022-12-01T15:28:18.569Z,26.23
2022-12-01T15:30:52.745Z,25.98
2022-12-01T15:33:27.750Z,25.60
2022-12-01T15:35:58.897Z,25.60
2022-12-01T15:38:30.095Z,26.13
2022-12-01T15:41:27.828Z,24.98
2022-12-01T15:44:00.529Z,24.38
2022-12-01T15:46:30.612Z,24.05
2022-12-01T15:51:36.238Z,24.52
2022-12-01T15:54:04.233Z,24.50
2022-12-01T15:56:38.138Z,26.92
2022-12-01T15:59:24.800Z,24.83
2022-12-01T16:01:52.655Z,24.83
2022-12-01T16:04:22.974Z,24.48
2022-12-01T16:07:10.670Z,25.30
2022-12-01T16:09:39.806Z,27.45
2022-12-01T16:12:21.984Z,27.90
2022-12-01T16:15:01.594Z,27.02
2022-12-01T16:17:50.640Z,25.98
2022-12-01T16:20:38.403Z,26.17
2022-12-01T16:23:12.162Z,27.98
2022-12-01T16:25:45.891Z,25.27
2022-12-01T16:28:35.663Z,25.55
2022-12-01T16:31:12.575Z,25.17
2022-12-01T16:33:42.810Z,27.20
2022-12-01T16:36:10.306Z,24.90
2022-12-01T16:38:37.837Z,25.08
2022-12-01T16:41:16.912Z,25.38
2022-12-01T16:44:05.394Z,28.10
2022-12-01T16:46:32.604Z,27.55
2022-12-01T16:49:00.199Z,28.88
2022-12-01T16:51:35.560Z,27.77
2022-12-01T16:54:10.236Z,28.73
2022-12-01T16:56:37.731Z,28.05
2022-12-01T16:59:06.816Z,28.45
2022-12-01T17:01:34.399Z,29.25
2022-12-01T17:04:07.760Z,30.58
2022-12-01T17:06:36.344Z,29.88
2022-12-01T17:09:04.056Z,29.83
2022-12-01T17:11:32.502Z,29.42
2022-12-01T17:14:00.061Z,30.58
2022-12-01T17:16:27.743Z,28.23
2022-12-01T17:18:55.401Z,27.77
2022-12-01T17:21:22.977Z,28.85
2022-12-01T17:23:50.701Z,26.95
2022-12-01T17:26:19.657Z,27.45
2022-12-01T17:28:47.607Z,29.80
2022-12-01T17:31:15.617Z,28.77
2022-12-01T17:33:43.364Z,27.98
2022-12-01T17:36:13.486Z,28.30
2022-12-01T17:38:43.201Z,28.85
2022-12-01T17:41:17.491Z,27.70
2022-12-01T17:43:45.530Z,27.67
2022-12-01T17:46:13.862Z,28.80
2022-12-01T17:48:43.663Z,27.83
2022-12-01T17:51:13.457Z,29.50
2022-12-01T17:53:41.159Z,28.77
2022-12-01T17:56:10.801Z,32.40
2022-12-01T17:58:38.778Z,28.70
2022-12-01T18:01:12.455Z,27.83
2022-12-01T18:03:41.813Z,30.58
2022-12-01T18:06:09.832Z,28.45
2022-12-01T18:08:37.863Z,30.17
2022-12-01T18:11:07.874Z,26.80
2022-12-01T18:13:40.945Z,27.20
2022-12-01T18:16:18.765Z,28.08
2022-12-01T18:18:46.743Z,26.63
2022-12-01T18:21:17.271Z,28.13
2022-12-01T18:23:52.719Z,28.52
2022-12-01T18:26:24.480Z,29.65
2022-12-01T18:29:00.075Z,28.98
2022-12-01T18:31:28.742Z,26.40
2022-12-01T18:33:58.914Z,28.35
2022-12-01T18:36:26.927Z,24.63
2022-12-01T18:38:54.663Z,29.00
2022-12-01T18:41:22.432Z,28.50
2022-12-01T18:43:50.678Z,29.20
2022-12-01T18:46:20.054Z,28.25
2022-12-01T18:48:50.781Z,28.27
2022-12-01T18:51:19.793Z,27.08
2022-12-01T18:53:48.246Z,28.50
2022-12-01T18:56:17.218Z,26.95
2022-12-01T18:58:44.983Z,27.70
2022-12-01T19:01:21.244Z,27.20
2022-12-01T19:03:48.972Z,28.13
2022-12-01T19:06:16.725Z,27.83
2022-12-01T19:08:47.870Z,28.45
2022-12-01T19:11:15.868Z,29.75
2022-12-01T19:13:43.458Z,26.95
2022-12-01T19:16:17.865Z,29.17
2022-12-01T19:18:46.105Z,28.80
2022-12-01T19:21:16.958Z,25.55
2022-12-01T19:23:46.005Z,28.58
2022-12-01T19:26:17.225Z,32.23
2022-12-01T19:28:45.866Z,30.73
2022-12-01T19:31:20.807Z,30.50
2022-12-01T19:33:49.370Z,29.67
2022-12-01T19:36:23.597Z,27.58
2022-12-01T19:38:52.575Z,24.70
2022-12-01T19:41:21.042Z,27.65
2022-12-01T19:43:48.898Z,31.38
2022-12-01T19:46:19.965Z,27.50
2022-12-01T19:48:52.757Z,29.80
2022-12-01T19:51:26.588Z,28.17
2022-12-01T19:53:55.111Z,29.63
2022-12-01T19:56:23.667Z,29.90
2022-12-01T19:58:51.439Z,28.45
2022-12-01T20:01:20.312Z,29.58
2022-12-01T20:03:49.910Z,30.03
2022-12-01T20:06:27.165Z,31.45
2022-12-01T20:08:56.655Z,26.88
2022-12-01T20:11:25.206Z,27.85
2022-12-01T20:13:53.347Z,28.38
2022-12-01T20:16:23.707Z,25.15
2022-12-01T20:18:52.659Z,28.25
2022-12-01T20:21:26.544Z,28.45
2022-12-01T20:24:05.387Z,29.55
2022-12-01T20:26:42.907Z,28.70
2022-12-01T20:29:13.987Z,30.00
2022-12-01T20:31:42.986Z,27.33
2022-12-01T20:34:15.162Z,27.63
2022-12-01T20:36:43.623Z,26.63
2022-12-01T20:39:12.160Z,28.42
2022-12-01T20:41:40.837Z,26.27
2022-12-01T20:44:09.420Z,27.65
2022-12-01T20:46:38.375Z,27.45
2022-12-01T20:49:06.137Z,22.98
2022-12-01T20:51:34.964Z,24.13
2022-12-01T20:54:27.453Z,25.40
2022-12-01T20:56:53.326Z,24.13
2022-12-01T20:59:20.915Z,26.40
2022-12-01T21:01:48.803Z,29.20
2022-12-01T21:04:17.224Z,27.85
2022-12-01T21:06:44.808Z,27.15
2022-12-01T21:09:13.326Z,30.42
2022-12-01T21:12:08.140Z,30.55
2022-12-01T21:14:46.689Z,30.08
2022-12-01T21:17:32.393Z,28.50
2022-12-01T21:20:21.734Z,26.13
2022-12-01T21:22:51.197Z,26.55
2022-12-01T21:25:22.349Z,27.67
2022-12-01T21:27:50.777Z,29.55
2022-12-01T21:30:22.025Z,29.48
2022-12-01T21:32:50.103Z,30.30
2022-12-01T21:35:24.768Z,29.35
2022-12-01T21:38:00.461Z,29.80
2022-12-01T21:40:28.559Z,29.02
2022-12-01T21:42:59.333Z,27.80
2022-12-01T21:45:32.063Z,26.00
2022-12-01T21:48:23.067Z,26.73
2022-12-01T21:50:59.032Z,29.83
2022-12-01T21:53:32.411Z,28.90
2022-12-01T21:56:00.975Z,28.75
2022-12-01T21:58:34.955Z,28.63
2022-12-01T22:01:07.962Z,28.40
2022-12-01T22:03:44.977Z,28.73
2022-12-01T22:06:30.206Z,26.27
2022-12-01T22:09:01.868Z,28.13
2022-12-01T22:11:31.165Z,24.77
2022-12-01T22:14:11.615Z,24.67
2022-12-01T22:16:57.005Z,24.75
2022-12-01T22:19:37.566Z,28.27
2022-12-01T22:22:11.363Z,27.20
2022-12-01T22:24:45.473Z,27.83
2022-12-01T22:27:19.072Z,28.05
2022-12-01T22:29:49.145Z,28.25
2022-12-01T22:32:16.923Z,28.50
2022-12-01T22:34:49.890Z,27.42
2022-12-01T22:37:23.634Z,26.05
2022-12-01T22:39:56.614Z,23.73
2022-12-01T22:42:35.220Z,25.60
2022-12-01T22:45:22.162Z,25.15
2022-12-01T22:47:50.124Z,22.35
2022-12-01T22:50:28.960Z,25.23
2022-12-01T22:53:06.369Z,23.47
2022-12-01T22:55:34.492Z,24.77
2022-12-01T22:58:25.336Z,25.02
2022-12-01T23:00:54.535Z,24.63
2022-12-01T23:03:22.188Z,21.37
2022-12-01T23:05:56.388Z,23.08
2022-12-01T23:08:24.485Z,22.45
2022-12-01T23:10:52.214Z,23.23
2022-12-01T23:13:24.519Z,22.77
2022-12-01T23:15:56.333Z,26.95
2022-12-01T23:18:26.990Z,26.85
2022-12-01T23:20:59.635Z,27.92
2022-12-01T23:23:34.775Z,26.40
2022-12-01T23:26:06.169Z,26.55
2022-12-01T23:28:37.037Z,26.02
2022-12-01T23:31:04.770Z,26.65
2022-12-01T23:33:33.834Z,26.85
2022-12-01T23:36:14.412Z,25.05
2022-12-01T23:38:45.863Z,25.08
2022-12-01T23:41:38.399Z,26.48
2022-12-01T23:44:39.768Z,26.00
2022-12-01T23:47:26.754Z,27.80
2022-12-01T23:50:02.437Z,26.02
2022-12-01T23:52:36.445Z,27.85
2022-12-01T23:55:21.483Z,26.27
2022-12-01T23:57:50.452Z,28.23
